sensor_id;sensor_type;location;lat;lon;timestamp;P1;durP1;ratioP1;P2;durP2;ratioP2
76640;SDS011;65538;50.798;6.064;2024-02-26T00:00:28;3.73;;;1.60;;
76640;SDS011;65538;50.798;6.064;2024-02-26T00:02:54;4.05;;;1.70;;
76640;SDS011;65538;50.798;6.064;2024-02-26T00:05:19;3.90;;;1.90;;
76640;SDS011;65538;50.798;6.064;2024-02-26T00:07:44;3.63;;;1.60;;
76640;SDS011;65538;50.798;6.064;2024-02-26T00:10:10;4.50;;;1.52;;
76640;SDS011;65538;50.798;6.064;2024-02-26T00:12:35;3.40;;;1.57;;
76640;SDS011;65538;50.798;6.064;2024-02-26T00:15:00;4.13;;;1.87;;
76640;SDS011;65538;50.798;6.064;2024-02-26T00:17:25;3.00;;;1.50;;
76640;SDS011;65538;50.798;6.064;2024-02-26T00:19:51;3.63;;;1.57;;
76640;SDS011;65538;50.798;6.064;2024-02-26T00:22:16;3.07;;;1.43;;
76640;SDS011;65538;50.798;6.064;2024-02-26T00:24:41;4.97;;;2.00;;
76640;SDS011;65538;50.798;6.064;2024-02-26T00:27:06;4.33;;;1.70;;
76640;SDS011;65538;50.798;6.064;2024-02-26T00:29:31;4.80;;;1.47;;
76640;SDS011;65538;50.798;6.064;2024-02-26T00:31:57;3.40;;;1.63;;
76640;SDS011;65538;50.798;6.064;2024-02-26T00:34:22;4.63;;;1.90;;
76640;SDS011;65538;50.798;6.064;2024-02-26T00:36:47;3.73;;;2.03;;
76640;SDS011;65538;50.798;6.064;2024-02-26T00:39:13;3.37;;;1.53;;
76640;SDS011;65538;50.798;6.064;2024-02-26T00:41:40;3.63;;;1.90;;
76640;SDS011;65538;50.798;6.064;2024-02-26T00:44:05;3.30;;;1.73;;
76640;SDS011;65538;50.798;6.064;2024-02-26T00:46:30;3.93;;;1.87;;
76640;SDS011;65538;50.798;6.064;2024-02-26T00:48:55;4.67;;;1.80;;
76640;SDS011;65538;50.798;6.064;2024-02-26T00:51:21;4.03;;;1.73;;
76640;SDS011;65538;50.798;6.064;2024-02-26T00:53:46;3.10;;;1.90;;
76640;SDS011;65538;50.798;6.064;2024-02-26T00:56:11;3.70;;;1.70;;
76640;SDS011;65538;50.798;6.064;2024-02-26T00:58:36;5.57;;;1.80;;
76640;SDS011;65538;50.798;6.064;2024-02-26T01:01:01;4.07;;;1.90;;
76640;SDS011;65538;50.798;6.064;2024-02-26T01:03:28;3.63;;;1.92;;
76640;SDS011;65538;50.798;6.064;2024-02-26T01:05:53;3.47;;;1.63;;
76640;SDS011;65538;50.798;6.064;2024-02-26T01:08:21;4.10;;;1.83;;
76640;SDS011;65538;50.798;6.064;2024-02-26T01:10:46;2.50;;;1.48;;
76640;SDS011;65538;50.798;6.064;2024-02-26T01:13:12;4.83;;;1.70;;
76640;SDS011;65538;50.798;6.064;2024-02-26T01:15:37;4.30;;;1.30;;
76640;SDS011;65538;50.798;6.064;2024-02-26T01:18:02;5.47;;;1.90;;
76640;SDS011;65538;50.798;6.064;2024-02-26T01:20:27;4.07;;;1.53;;
76640;SDS011;65538;50.798;6.064;2024-02-26T01:22:52;7.07;;;1.87;;
76640;SDS011;65538;50.798;6.064;2024-02-26T01:25:17;3.43;;;1.30;;
76640;SDS011;65538;50.798;6.064;2024-02-26T01:27:43;3.20;;;1.30;;
76640;SDS011;65538;50.798;6.064;2024-02-26T01:30:09;4.30;;;1.52;;
76640;SDS011;65538;50.798;6.064;2024-02-26T01:32:34;3.00;;;1.33;;
76640;SDS011;65538;50.798;6.064;2024-02-26T01:35:01;3.05;;;1.27;;
76640;SDS011;65538;50.798;6.064;2024-02-26T01:37:27;3.80;;;1.92;;
76640;SDS011;65538;50.798;6.064;2024-02-26T01:39:54;3.90;;;1.40;;
76640;SDS011;65538;50.798;6.064;2024-02-26T01:42:19;3.67;;;1.60;;
76640;SDS011;65538;50.798;6.064;2024-02-26T01:44:45;3.80;;;1.70;;
76640;SDS011;65538;50.798;6.064;2024-02-26T01:47:13;3.47;;;1.40;;
76640;SDS011;65538;50.798;6.064;2024-02-26T01:49:38;3.90;;;1.65;;
76640;SDS011;65538;50.798;6.064;2024-02-26T01:52:04;3.15;;;1.35;;
76640;SDS011;65538;50.798;6.064;2024-02-26T01:54:31;3.40;;;1.30;;
76640;SDS011;65538;50.798;6.064;2024-02-26T01:56:56;3.35;;;1.30;;
76640;SDS011;65538;50.798;6.064;2024-02-26T01:59:22;3.42;;;1.77;;
76640;SDS011;65538;50.798;6.064;2024-02-26T02:01:48;4.07;;;1.60;;
76640;SDS011;65538;50.798;6.064;2024-02-26T02:04:16;4.80;;;1.48;;
76640;SDS011;65538;50.798;6.064;2024-02-26T02:06:41;3.00;;;1.30;;
76640;SDS011;65538;50.798;6.064;2024-02-26T02:09:08;3.78;;;1.50;;
76640;SDS011;65538;50.798;6.064;2024-02-26T02:11:33;3.35;;;1.33;;
76640;SDS011;65538;50.798;6.064;2024-02-26T02:13:59;2.50;;;1.10;;
76640;SDS011;65538;50.798;6.064;2024-02-26T02:16:24;4.20;;;1.50;;
76640;SDS011;65538;50.798;6.064;2024-02-26T02:18:49;2.95;;;1.40;;
76640;SDS011;65538;50.798;6.064;2024-02-26T02:21:14;2.80;;;1.33;;
76640;SDS011;65538;50.798;6.064;2024-02-26T02:23:40;4.63;;;1.40;;
76640;SDS011;65538;50.798;6.064;2024-02-26T02:26:05;2.67;;;1.40;;
76640;SDS011;65538;50.798;6.064;2024-02-26T02:28:30;3.87;;;1.50;;
76640;SDS011;65538;50.798;6.064;2024-02-26T02:30:55;2.87;;;1.50;;
76640;SDS011;65538;50.798;6.064;2024-02-26T02:33:21;3.58;;;1.40;;
76640;SDS011;65538;50.798;6.064;2024-02-26T02:35:47;3.53;;;1.60;;
76640;SDS011;65538;50.798;6.064;2024-02-26T02:38:12;2.80;;;1.20;;
76640;SDS011;65538;50.798;6.064;2024-02-26T02:40:37;4.47;;;1.40;;
76640;SDS011;65538;50.798;6.064;2024-02-26T02:43:03;3.80;;;1.50;;
76640;SDS011;65538;50.798;6.064;2024-02-26T02:45:29;3.97;;;1.45;;
76640;SDS011;65538;50.798;6.064;2024-02-26T02:47:54;3.13;;;1.40;;
76640;SDS011;65538;50.798;6.064;2024-02-26T02:50:20;3.03;;;1.43;;
76640;SDS011;65538;50.798;6.064;2024-02-26T02:52:45;3.23;;;1.57;;
76640;SDS011;65538;50.798;6.064;2024-02-26T02:55:10;5.17;;;1.60;;
76640;SDS011;65538;50.798;6.064;2024-02-26T02:57:35;4.55;;;1.70;;
76640;SDS011;65538;50.798;6.064;2024-02-26T03:00:06;3.85;;;1.42;;
76640;SDS011;65538;50.798;6.064;2024-02-26T03:02:32;3.63;;;1.60;;
76640;SDS011;65538;50.798;6.064;2024-02-26T03:04:57;3.07;;;1.70;;
76640;SDS011;65538;50.798;6.064;2024-02-26T03:07:22;4.30;;;1.97;;
76640;SDS011;65538;50.798;6.064;2024-02-26T03:09:47;3.90;;;1.60;;
76640;SDS011;65538;50.798;6.064;2024-02-26T03:12:12;3.87;;;1.80;;
76640;SDS011;65538;50.798;6.064;2024-02-26T03:14:43;2.80;;;1.30;;
76640;SDS011;65538;50.798;6.064;2024-02-26T03:17:08;4.07;;;2.03;;
76640;SDS011;65538;50.798;6.064;2024-02-26T03:19:33;3.30;;;1.37;;
76640;SDS011;65538;50.798;6.064;2024-02-26T03:21:59;3.23;;;1.47;;
76640;SDS011;65538;50.798;6.064;2024-02-26T03:24:24;3.73;;;1.67;;
76640;SDS011;65538;50.798;6.064;2024-02-26T03:26:49;4.63;;;2.23;;
76640;SDS011;65538;50.798;6.064;2024-02-26T03:29:15;3.25;;;1.40;;
76640;SDS011;65538;50.798;6.064;2024-02-26T03:31:40;3.27;;;1.80;;
76640;SDS011;65538;50.798;6.064;2024-02-26T03:34:06;3.87;;;2.00;;
76640;SDS011;65538;50.798;6.064;2024-02-26T03:36:31;4.40;;;1.53;;
76640;SDS011;65538;50.798;6.064;2024-02-26T03:38:56;6.47;;;2.47;;
76640;SDS011;65538;50.798;6.064;2024-02-26T03:41:21;2.90;;;1.70;;
76640;SDS011;65538;50.798;6.064;2024-02-26T03:43:46;5.07;;;2.43;;
76640;SDS011;65538;50.798;6.064;2024-02-26T03:46:12;4.43;;;1.70;;
76640;SDS011;65538;50.798;6.064;2024-02-26T03:48:38;3.03;;;1.70;;
76640;SDS011;65538;50.798;6.064;2024-02-26T03:51:03;3.45;;;1.52;;
76640;SDS011;65538;50.798;6.064;2024-02-26T03:53:29;2.77;;;1.50;;
76640;SDS011;65538;50.798;6.064;2024-02-26T03:55:54;4.07;;;1.80;;
76640;SDS011;65538;50.798;6.064;2024-02-26T03:58:20;4.35;;;1.60;;
76640;SDS011;65538;50.798;6.064;2024-02-26T04:00:45;4.13;;;1.37;;
76640;SDS011;65538;50.798;6.064;2024-02-26T04:03:12;4.55;;;1.55;;
76640;SDS011;65538;50.798;6.064;2024-02-26T04:05:37;2.63;;;1.23;;
76640;SDS011;65538;50.798;6.064;2024-02-26T04:08:02;4.57;;;1.80;;
76640;SDS011;65538;50.798;6.064;2024-02-26T04:10:29;3.53;;;1.65;;
76640;SDS011;65538;50.798;6.064;2024-02-26T04:12:54;3.23;;;1.73;;
76640;SDS011;65538;50.798;6.064;2024-02-26T04:15:19;3.47;;;1.83;;
76640;SDS011;65538;50.798;6.064;2024-02-26T04:17:44;3.80;;;1.90;;
76640;SDS011;65538;50.798;6.064;2024-02-26T04:20:13;5.27;;;1.90;;
76640;SDS011;65538;50.798;6.064;2024-02-26T04:22:38;4.18;;;2.78;;
76640;SDS011;65538;50.798;6.064;2024-02-26T04:25:03;5.07;;;1.90;;
76640;SDS011;65538;50.798;6.064;2024-02-26T04:27:29;3.37;;;1.67;;
76640;SDS011;65538;50.798;6.064;2024-02-26T04:29:54;3.23;;;1.83;;
76640;SDS011;65538;50.798;6.064;2024-02-26T04:32:19;3.03;;;1.77;;
76640;SDS011;65538;50.798;6.064;2024-02-26T04:34:44;4.40;;;1.80;;
76640;SDS011;65538;50.798;6.064;2024-02-26T04:37:09;4.50;;;2.33;;
76640;SDS011;65538;50.798;6.064;2024-02-26T04:39:34;5.03;;;2.00;;
76640;SDS011;65538;50.798;6.064;2024-02-26T04:42:00;4.10;;;1.80;;
76640;SDS011;65538;50.798;6.064;2024-02-26T04:44:29;4.75;;;1.83;;
76640;SDS011;65538;50.798;6.064;2024-02-26T04:46:54;4.90;;;2.17;;
76640;SDS011;65538;50.798;6.064;2024-02-26T04:49:19;2.93;;;1.60;;
76640;SDS011;65538;50.798;6.064;2024-02-26T04:51:44;3.50;;;1.90;;
76640;SDS011;65538;50.798;6.064;2024-02-26T04:54:10;3.27;;;1.80;;
76640;SDS011;65538;50.798;6.064;2024-02-26T04:56:35;3.50;;;1.60;;
76640;SDS011;65538;50.798;6.064;2024-02-26T04:59:00;2.70;;;1.43;;
76640;SDS011;65538;50.798;6.064;2024-02-26T05:01:25;3.00;;;1.50;;
76640;SDS011;65538;50.798;6.064;2024-02-26T05:03:50;4.57;;;2.30;;
76640;SDS011;65538;50.798;6.064;2024-02-26T05:06:16;2.80;;;1.73;;
76640;SDS011;65538;50.798;6.064;2024-02-26T05:08:41;3.33;;;1.67;;
76640;SDS011;65538;50.798;6.064;2024-02-26T05:11:06;4.17;;;1.63;;
76640;SDS011;65538;50.798;6.064;2024-02-26T05:13:31;5.63;;;1.83;;
76640;SDS011;65538;50.798;6.064;2024-02-26T05:15:57;3.77;;;2.57;;
76640;SDS011;65538;50.798;6.064;2024-02-26T05:18:22;3.45;;;1.80;;
76640;SDS011;65538;50.798;6.064;2024-02-26T05:20:47;6.03;;;2.10;;
76640;SDS011;65538;50.798;6.064;2024-02-26T05:23:12;6.03;;;2.20;;
76640;SDS011;65538;50.798;6.064;2024-02-26T05:25:38;4.40;;;2.10;;
76640;SDS011;65538;50.798;6.064;2024-02-26T05:28:03;3.97;;;2.20;;
76640;SDS011;65538;50.798;6.064;2024-02-26T05:30:29;3.67;;;2.20;;
76640;SDS011;65538;50.798;6.064;2024-02-26T05:32:54;6.60;;;2.83;;
76640;SDS011;65538;50.798;6.064;2024-02-26T05:35:19;4.53;;;2.57;;
76640;SDS011;65538;50.798;6.064;2024-02-26T05:37:44;4.03;;;2.30;;
76640;SDS011;65538;50.798;6.064;2024-02-26T05:40:10;4.30;;;2.27;;
76640;SDS011;65538;50.798;6.064;2024-02-26T05:42:35;5.25;;;2.42;;
76640;SDS011;65538;50.798;6.064;2024-02-26T05:45:00;4.30;;;2.23;;
76640;SDS011;65538;50.798;6.064;2024-02-26T05:47:30;3.67;;;2.10;;
76640;SDS011;65538;50.798;6.064;2024-02-26T05:49:56;5.25;;;2.67;;
76640;SDS011;65538;50.798;6.064;2024-02-26T05:52:23;4.18;;;2.20;;
76640;SDS011;65538;50.798;6.064;2024-02-26T05:54:48;3.80;;;2.40;;
76640;SDS011;65538;50.798;6.064;2024-02-26T05:57:13;4.70;;;2.07;;
76640;SDS011;65538;50.798;6.064;2024-02-26T05:59:39;3.77;;;2.43;;
76640;SDS011;65538;50.798;6.064;2024-02-26T06:02:04;4.40;;;1.90;;
76640;SDS011;65538;50.798;6.064;2024-02-26T06:04:29;3.97;;;2.45;;
76640;SDS011;65538;50.798;6.064;2024-02-26T06:06:54;5.00;;;2.30;;
76640;SDS011;65538;50.798;6.064;2024-02-26T06:09:20;4.57;;;2.57;;
76640;SDS011;65538;50.798;6.064;2024-02-26T06:11:45;4.33;;;2.47;;
76640;SDS011;65538;50.798;6.064;2024-02-26T06:14:10;4.73;;;2.70;;
76640;SDS011;65538;50.798;6.064;2024-02-26T06:16:37;5.50;;;2.55;;
76640;SDS011;65538;50.798;6.064;2024-02-26T06:19:03;4.18;;;2.78;;
76640;SDS011;65538;50.798;6.064;2024-02-26T06:21:28;5.65;;;3.15;;
76640;SDS011;65538;50.798;6.064;2024-02-26T06:23:53;8.63;;;2.97;;
76640;SDS011;65538;50.798;6.064;2024-02-26T06:26:19;5.00;;;3.10;;
76640;SDS011;65538;50.798;6.064;2024-02-26T06:28:44;8.03;;;3.17;;
76640;SDS011;65538;50.798;6.064;2024-02-26T06:31:10;5.73;;;2.90;;
76640;SDS011;65538;50.798;6.064;2024-02-26T06:33:35;5.63;;;3.17;;
76640;SDS011;65538;50.798;6.064;2024-02-26T06:36:00;8.87;;;4.23;;
76640;SDS011;65538;50.798;6.064;2024-02-26T06:38:25;7.73;;;3.40;;
76640;SDS011;65538;50.798;6.064;2024-02-26T06:40:50;6.23;;;3.50;;
76640;SDS011;65538;50.798;6.064;2024-02-26T06:43:16;6.27;;;3.10;;
76640;SDS011;65538;50.798;6.064;2024-02-26T06:45:41;7.43;;;3.50;;
76640;SDS011;65538;50.798;6.064;2024-02-26T06:48:06;5.80;;;3.23;;
76640;SDS011;65538;50.798;6.064;2024-02-26T06:50:31;6.35;;;3.80;;
76640;SDS011;65538;50.798;6.064;2024-02-26T06:52:57;6.07;;;3.10;;
76640;SDS011;65538;50.798;6.064;2024-02-26T06:55:22;6.73;;;3.90;;
76640;SDS011;65538;50.798;6.064;2024-02-26T06:57:47;6.90;;;3.80;;
76640;SDS011;65538;50.798;6.064;2024-02-26T07:00:12;5.37;;;3.63;;
76640;SDS011;65538;50.798;6.064;2024-02-26T07:02:40;7.78;;;3.55;;
76640;SDS011;65538;50.798;6.064;2024-02-26T07:05:05;7.28;;;4.32;;
76640;SDS011;65538;50.798;6.064;2024-02-26T07:07:31;6.82;;;4.30;;
76640;SDS011;65538;50.798;6.064;2024-02-26T07:09:56;6.53;;;4.37;;
76640;SDS011;65538;50.798;6.064;2024-02-26T07:12:21;7.50;;;3.87;;
76640;SDS011;65538;50.798;6.064;2024-02-26T07:14:47;6.07;;;3.97;;
76640;SDS011;65538;50.798;6.064;2024-02-26T07:17:12;8.90;;;3.70;;
76640;SDS011;65538;50.798;6.064;2024-02-26T07:19:37;6.72;;;3.88;;
76640;SDS011;65538;50.798;6.064;2024-02-26T07:22:03;9.17;;;5.10;;
76640;SDS011;65538;50.798;6.064;2024-02-26T07:24:28;9.70;;;5.20;;
76640;SDS011;65538;50.798;6.064;2024-02-26T07:26:53;8.03;;;4.87;;
76640;SDS011;65538;50.798;6.064;2024-02-26T07:29:20;8.70;;;4.45;;
76640;SDS011;65538;50.798;6.064;2024-02-26T07:31:45;8.77;;;4.80;;
76640;SDS011;65538;50.798;6.064;2024-02-26T07:34:10;9.73;;;5.33;;
76640;SDS011;65538;50.798;6.064;2024-02-26T07:36:36;12.80;;;5.93;;
76640;SDS011;65538;50.798;6.064;2024-02-26T07:39:01;8.35;;;5.47;;
76640;SDS011;65538;50.798;6.064;2024-02-26T07:41:27;8.67;;;4.87;;
76640;SDS011;65538;50.798;6.064;2024-02-26T07:43:52;10.57;;;5.00;;
76640;SDS011;65538;50.798;6.064;2024-02-26T07:46:17;8.43;;;5.18;;
76640;SDS011;65538;50.798;6.064;2024-02-26T07:48:42;9.83;;;4.30;;
76640;SDS011;65538;50.798;6.064;2024-02-26T07:51:07;7.83;;;4.83;;
76640;SDS011;65538;50.798;6.064;2024-02-26T07:53:33;7.07;;;4.53;;
76640;SDS011;65538;50.798;6.064;2024-02-26T07:55:58;7.23;;;4.60;;
76640;SDS011;65538;50.798;6.064;2024-02-26T07:58:23;7.10;;;4.43;;
76640;SDS011;65538;50.798;6.064;2024-02-26T08:00:48;7.43;;;4.37;;
76640;SDS011;65538;50.798;6.064;2024-02-26T08:03:14;8.50;;;4.85;;
76640;SDS011;65538;50.798;6.064;2024-02-26T08:05:40;8.02;;;3.95;;
76640;SDS011;65538;50.798;6.064;2024-02-26T08:08:07;8.93;;;4.70;;
76640;SDS011;65538;50.798;6.064;2024-02-26T08:10:32;5.93;;;3.90;;
76640;SDS011;65538;50.798;6.064;2024-02-26T08:12:58;6.93;;;4.30;;
76640;SDS011;65538;50.798;6.064;2024-02-26T08:15:30;5.55;;;3.75;;
76640;SDS011;65538;50.798;6.064;2024-02-26T08:17:55;8.00;;;4.30;;
76640;SDS011;65538;50.798;6.064;2024-02-26T08:20:20;6.47;;;3.90;;
76640;SDS011;65538;50.798;6.064;2024-02-26T08:22:45;6.63;;;4.20;;
76640;SDS011;65538;50.798;6.064;2024-02-26T08:25:10;7.00;;;4.10;;
76640;SDS011;65538;50.798;6.064;2024-02-26T08:27:36;6.70;;;3.93;;
76640;SDS011;65538;50.798;6.064;2024-02-26T08:30:01;7.28;;;3.80;;
76640;SDS011;65538;50.798;6.064;2024-02-26T08:32:26;8.15;;;3.90;;
76640;SDS011;65538;50.798;6.064;2024-02-26T08:34:51;6.97;;;4.33;;
76640;SDS011;65538;50.798;6.064;2024-02-26T08:37:17;7.90;;;4.83;;
76640;SDS011;65538;50.798;6.064;2024-02-26T08:39:42;8.90;;;4.47;;
76640;SDS011;65538;50.798;6.064;2024-02-26T08:42:07;7.50;;;4.20;;
76640;SDS011;65538;50.798;6.064;2024-02-26T08:44:32;7.80;;;4.13;;
76640;SDS011;65538;50.798;6.064;2024-02-26T08:46:57;7.17;;;4.20;;
76640;SDS011;65538;50.798;6.064;2024-02-26T08:49:23;5.53;;;3.78;;
76640;SDS011;65538;50.798;6.064;2024-02-26T08:51:49;6.50;;;3.87;;
76640;SDS011;65538;50.798;6.064;2024-02-26T08:54:14;6.70;;;3.73;;
76640;SDS011;65538;50.798;6.064;2024-02-26T08:56:39;7.20;;;3.83;;
76640;SDS011;65538;50.798;6.064;2024-02-26T08:59:04;8.60;;;4.10;;
76640;SDS011;65538;50.798;6.064;2024-02-26T09:01:31;8.97;;;4.10;;
76640;SDS011;65538;50.798;6.064;2024-02-26T09:03:56;8.75;;;3.80;;
76640;SDS011;65538;50.798;6.064;2024-02-26T09:06:21;5.80;;;3.37;;
76640;SDS011;65538;50.798;6.064;2024-02-26T09:08:46;7.43;;;3.73;;
76640;SDS011;65538;50.798;6.064;2024-02-26T09:11:11;6.77;;;3.57;;
76640;SDS011;65538;50.798;6.064;2024-02-26T09:13:37;4.83;;;2.70;;
76640;SDS011;65538;50.798;6.064;2024-02-26T09:16:02;4.53;;;2.20;;
76640;SDS011;65538;50.798;6.064;2024-02-26T09:18:27;5.22;;;2.30;;
76640;SDS011;65538;50.798;6.064;2024-02-26T09:20:53;4.18;;;2.33;;
76640;SDS011;65538;50.798;6.064;2024-02-26T09:23:19;3.97;;;1.90;;
76640;SDS011;65538;50.798;6.064;2024-02-26T09:25:44;3.90;;;1.80;;
76640;SDS011;65538;50.798;6.064;2024-02-26T09:28:09;2.97;;;1.40;;
76640;SDS011;65538;50.798;6.064;2024-02-26T09:30:34;3.30;;;1.40;;
76640;SDS011;65538;50.798;6.064;2024-02-26T09:32:59;3.90;;;1.70;;
76640;SDS011;65538;50.798;6.064;2024-02-26T09:35:25;2.67;;;1.47;;
76640;SDS011;65538;50.798;6.064;2024-02-26T09:37:51;2.75;;;1.35;;
76640;SDS011;65538;50.798;6.064;2024-02-26T09:40:17;2.88;;;1.50;;
76640;SDS011;65538;50.798;6.064;2024-02-26T09:42:43;3.40;;;1.33;;
76640;SDS011;65538;50.798;6.064;2024-02-26T09:45:09;2.83;;;1.48;;
76640;SDS011;65538;50.798;6.064;2024-02-26T09:47:37;3.58;;;1.65;;
76640;SDS011;65538;50.798;6.064;2024-02-26T09:50:03;3.63;;;1.67;;
76640;SDS011;65538;50.798;6.064;2024-02-26T09:52:30;3.45;;;2.03;;
76640;SDS011;65538;50.798;6.064;2024-02-26T09:54:55;4.18;;;1.80;;
76640;SDS011;65538;50.798;6.064;2024-02-26T09:57:21;4.77;;;1.73;;
